RYR5932 LDDU-EDLV
Flight info
| Callsign | RYR5932 |
|---|---|
| Flight time | N/A |
| Altitude | 36000 |
| Route | AMUGO DCT UNIPA DCT WIMMI DCT RENKA DCT RUDNO DCT SULUS T852 TESDU DCT AMETU T852 HMM Z850 TURUX DCT SOBTU SOBTU1W |
| Aircraft | B738/M-SDE3FGILRWY/SB1 |
Departure
| Time | N/A |
|---|---|
| Airport | Dubrovnik Ruđer Bošković Airport (LDDU) |
Arrival
| Time | 2026-04-25 14:51 |
|---|---|
| Airport | Weeze (Niederrhein) Airport (EDLV) |
| Time | Latitude | Longitude | Altitude | Speed | Heading |
|---|---|---|---|---|---|
| 2026-04-25 14:11 | 49.86483 | 11.25719 | 34064 ft | 395 kts | 303° |
| 2026-04-25 14:12 | 49.89371 | 11.18525 | 34064 ft | 394 kts | 303° |
| 2026-04-25 14:12 | 49.92266 | 11.11292 | 34061 ft | 394 kts | 303° |
| 2026-04-25 14:13 | 49.95157 | 11.04051 | 34065 ft | 394 kts | 303° |
| 2026-04-25 14:13 | 49.98026 | 10.96844 | 34064 ft | 394 kts | 302° |
| 2026-04-25 14:14 | 50.00914 | 10.89570 | 34069 ft | 395 kts | 302° |
| 2026-04-25 14:14 | 50.03804 | 10.82268 | 34072 ft | 395 kts | 302° |
| 2026-04-25 14:15 | 50.06669 | 10.75014 | 34075 ft | 396 kts | 302° |
| 2026-04-25 14:15 | 50.09560 | 10.67706 | 34078 ft | 396 kts | 303° |
| 2026-04-25 14:16 | 50.12459 | 10.60400 | 34076 ft | 396 kts | 303° |
| 2026-04-25 14:16 | 50.15338 | 10.53122 | 34084 ft | 396 kts | 302° |
| 2026-04-25 14:17 | 50.18229 | 10.45790 | 34081 ft | 396 kts | 302° |
| 2026-04-25 14:17 | 50.21120 | 10.38494 | 34079 ft | 395 kts | 304° |
| 2026-04-25 14:18 | 50.24221 | 10.31458 | 34081 ft | 395 kts | 306° |
| 2026-04-25 14:18 | 50.27408 | 10.24449 | 34081 ft | 394 kts | 306° |
| 2026-04-25 14:19 | 50.30568 | 10.17438 | 34083 ft | 394 kts | 306° |
| 2026-04-25 14:19 | 50.33687 | 10.10453 | 34081 ft | 393 kts | 306° |
| 2026-04-25 14:20 | 50.36813 | 10.03415 | 34083 ft | 393 kts | 306° |
| 2026-04-25 14:20 | 50.39927 | 9.96381 | 34080 ft | 392 kts | 305° |
| 2026-04-25 14:21 | 50.43034 | 9.89346 | 34092 ft | 392 kts | 305° |
| 2026-04-25 14:21 | 50.46137 | 9.82298 | 34087 ft | 392 kts | 305° |
| 2026-04-25 14:22 | 50.49220 | 9.75279 | 34088 ft | 393 kts | 305° |
| 2026-04-25 14:22 | 50.52329 | 9.68183 | 34094 ft | 393 kts | 305° |
| 2026-04-25 14:23 | 50.55424 | 9.61098 | 34087 ft | 393 kts | 305° |
| 2026-04-25 14:23 | 50.58496 | 9.54046 | 34088 ft | 393 kts | 305° |
| 2026-04-25 14:24 | 50.61584 | 9.46939 | 34092 ft | 393 kts | 305° |
| 2026-04-25 14:24 | 50.64673 | 9.39811 | 34091 ft | 393 kts | 305° |
| 2026-04-25 14:25 | 50.67750 | 9.32690 | 34093 ft | 393 kts | 304° |
| 2026-04-25 14:25 | 50.70806 | 9.25599 | 34088 ft | 393 kts | 304° |
| 2026-04-25 14:26 | 50.73870 | 9.18469 | 34090 ft | 392 kts | 304° |
| 2026-04-25 14:26 | 50.76927 | 9.11337 | 34088 ft | 392 kts | 304° |
| 2026-04-25 14:27 | 50.79980 | 9.04195 | 34091 ft | 392 kts | 304° |
| 2026-04-25 14:27 | 50.82565 | 8.98307 | 34087 ft | 392 kts | 309° |
| 2026-04-25 14:27 | 50.85068 | 8.94193 | 34094 ft | 391 kts | 320° |
| 2026-04-25 14:28 | 50.86517 | 8.92395 | 34101 ft | 391 kts | 319° |
| 2026-04-25 14:28 | 50.88400 | 8.89329 | 33602 ft | 396 kts | 308° |
| 2026-04-25 14:28 | 50.90036 | 8.85762 | 33145 ft | 404 kts | 305° |
| 2026-04-25 14:28 | 50.91623 | 8.82043 | 32644 ft | 409 kts | 304° |
| 2026-04-25 14:29 | 50.93194 | 8.78269 | 32161 ft | 410 kts | 304° |
| 2026-04-25 14:29 | 50.94759 | 8.74483 | 31674 ft | 410 kts | 304° |
| 2026-04-25 14:29 | 50.96319 | 8.70688 | 31199 ft | 410 kts | 303° |
| 2026-04-25 14:29 | 50.97877 | 8.66886 | 30728 ft | 410 kts | 303° |
| 2026-04-25 14:30 | 50.99428 | 8.63094 | 30271 ft | 410 kts | 303° |
| 2026-04-25 14:30 | 51.02508 | 8.55549 | 29231 ft | 410 kts | 303° |
| 2026-04-25 14:30 | 51.04064 | 8.51737 | 28716 ft | 414 kts | 303° |
| 2026-04-25 14:31 | 51.05645 | 8.47868 | 28218 ft | 419 kts | 303° |
| 2026-04-25 14:31 | 51.07249 | 8.43947 | 27717 ft | 423 kts | 303° |
| 2026-04-25 14:31 | 51.08854 | 8.40029 | 27223 ft | 423 kts | 303° |
| 2026-04-25 14:31 | 51.10465 | 8.36102 | 26735 ft | 423 kts | 303° |
| 2026-04-25 14:32 | 51.12077 | 8.32177 | 26260 ft | 423 kts | 303° |
| 2026-04-25 14:32 | 51.13662 | 8.28297 | 25804 ft | 424 kts | 301° |
| 2026-04-25 14:32 | 51.14999 | 8.24125 | 25515 ft | 416 kts | 295° |
| 2026-04-25 14:32 | 51.16095 | 8.19910 | 25064 ft | 409 kts | 292° |
| 2026-04-25 14:33 | 51.17094 | 8.15712 | 24646 ft | 401 kts | 291° |
| 2026-04-25 14:33 | 51.18061 | 8.11581 | 24221 ft | 394 kts | 291° |
| 2026-04-25 14:33 | 51.19024 | 8.07522 | 23798 ft | 388 kts | 291° |
| 2026-04-25 14:33 | 51.19991 | 8.03524 | 23281 ft | 384 kts | 292° |
| 2026-04-25 14:34 | 51.20965 | 7.99557 | 22731 ft | 382 kts | 292° |
| 2026-04-25 14:34 | 51.21926 | 7.95679 | 22216 ft | 380 kts | 292° |
| 2026-04-25 14:34 | 51.22899 | 7.91777 | 21688 ft | 376 kts | 292° |
| 2026-04-25 14:34 | 51.23863 | 7.87915 | 21186 ft | 374 kts | 292° |
| 2026-04-25 14:35 | 51.24823 | 7.84067 | 20678 ft | 372 kts | 292° |
| 2026-04-25 14:35 | 51.25779 | 7.80234 | 20185 ft | 369 kts | 292° |
| 2026-04-25 14:35 | 51.26726 | 7.76436 | 19690 ft | 366 kts | 292° |
| 2026-04-25 14:35 | 51.27664 | 7.72663 | 19210 ft | 363 kts | 292° |
| 2026-04-25 14:36 | 51.28593 | 7.68917 | 18732 ft | 361 kts | 292° |
| 2026-04-25 14:36 | 51.29504 | 7.65237 | 18249 ft | 359 kts | 292° |
| 2026-04-25 14:36 | 51.30421 | 7.61530 | 17715 ft | 356 kts | 292° |
| 2026-04-25 14:36 | 51.31327 | 7.57861 | 17194 ft | 354 kts | 292° |
| 2026-04-25 14:37 | 51.32229 | 7.54203 | 16683 ft | 352 kts | 292° |
| 2026-04-25 14:37 | 51.33127 | 7.50551 | 16169 ft | 350 kts | 292° |
| 2026-04-25 14:37 | 51.34003 | 7.46985 | 15674 ft | 348 kts | 292° |
| 2026-04-25 14:37 | 51.34884 | 7.43391 | 15199 ft | 346 kts | 292° |
| 2026-04-25 14:38 | 51.35763 | 7.39806 | 14708 ft | 344 kts | 292° |
| 2026-04-25 14:38 | 51.36634 | 7.36240 | 14231 ft | 342 kts | 292° |
| 2026-04-25 14:38 | 51.37499 | 7.32697 | 13734 ft | 341 kts | 292° |
| 2026-04-25 14:38 | 51.38359 | 7.29170 | 13210 ft | 339 kts | 292° |
| 2026-04-25 14:39 | 51.38927 | 7.26835 | 12869 ft | 337 kts | 292° |
| 2026-04-25 14:39 | 51.40051 | 7.22207 | 12200 ft | 335 kts | 292° |
| 2026-04-25 14:39 | 51.40895 | 7.18727 | 11697 ft | 334 kts | 292° |
| 2026-04-25 14:39 | 51.41734 | 7.15260 | 11204 ft | 333 kts | 292° |
| 2026-04-25 14:40 | 51.42569 | 7.11806 | 10725 ft | 332 kts | 292° |
| 2026-04-25 14:40 | 51.43392 | 7.08389 | 10503 ft | 322 kts | 292° |
| 2026-04-25 14:40 | 51.44177 | 7.05133 | 10365 ft | 303 kts | 292° |
| 2026-04-25 14:40 | 51.44915 | 7.02064 | 10158 ft | 287 kts | 292° |
| 2026-04-25 14:41 | 51.45607 | 6.99183 | 9949 ft | 274 kts | 292° |
| 2026-04-25 14:41 | 51.46279 | 6.96382 | 9711 ft | 263 kts | 292° |
| 2026-04-25 14:41 | 51.46924 | 6.93688 | 9497 ft | 255 kts | 292° |
| 2026-04-25 14:41 | 51.47554 | 6.91058 | 9287 ft | 251 kts | 292° |
| 2026-04-25 14:42 | 51.48183 | 6.88432 | 8879 ft | 257 kts | 292° |
| 2026-04-25 14:42 | 51.48606 | 6.86662 | 8706 ft | 253 kts | 292° |
| 2026-04-25 14:42 | 51.49433 | 6.83196 | 8230 ft | 247 kts | 292° |
| 2026-04-25 14:42 | 51.50045 | 6.80634 | 7822 ft | 245 kts | 292° |
| 2026-04-25 14:43 | 51.50652 | 6.78082 | 7403 ft | 244 kts | 292° |
| 2026-04-25 14:43 | 51.51256 | 6.75539 | 7003 ft | 242 kts | 292° |
| 2026-04-25 14:43 | 51.51851 | 6.73034 | 6634 ft | 239 kts | 292° |
| 2026-04-25 14:43 | 51.52438 | 6.70559 | 6250 ft | 239 kts | 292° |
| 2026-04-25 14:44 | 51.53026 | 6.68066 | 5823 ft | 238 kts | 292° |
| 2026-04-25 14:44 | 51.53615 | 6.65562 | 5509 ft | 240 kts | 291° |
| 2026-04-25 14:44 | 51.54204 | 6.63068 | 5333 ft | 239 kts | 293° |
| 2026-04-25 14:44 | 51.54798 | 6.60570 | 5055 ft | 240 kts | 292° |
| 2026-04-25 14:45 | 51.55393 | 6.58053 | 4762 ft | 242 kts | 292° |
| 2026-04-25 14:45 | 51.55971 | 6.55582 | 4711 ft | 231 kts | 292° |
| 2026-04-25 14:45 | 51.56518 | 6.53253 | 4612 ft | 219 kts | 293° |
| 2026-04-25 14:45 | 51.57048 | 6.51019 | 4499 ft | 210 kts | 293° |
| 2026-04-25 14:46 | 51.57554 | 6.48875 | 4420 ft | 200 kts | 292° |
| 2026-04-25 14:46 | 51.58033 | 6.46825 | 4306 ft | 191 kts | 292° |
| 2026-04-25 14:46 | 51.58495 | 6.44858 | 4063 ft | 188 kts | 292° |
| 2026-04-25 14:46 | 51.58980 | 6.42798 | 3384 ft | 204 kts | 292° |
| 2026-04-25 14:47 | 51.59458 | 6.40595 | 2744 ft | 212 kts | 284° |
| 2026-04-25 14:47 | 51.59628 | 6.39082 | 2608 ft | 203 kts | 278° |
| 2026-04-25 14:47 | 51.59781 | 6.36187 | 2464 ft | 186 kts | 275° |
| 2026-04-25 14:47 | 51.59873 | 6.34228 | 2437 ft | 170 kts | 276° |
| 2026-04-25 14:48 | 51.59869 | 6.32321 | 2198 ft | 169 kts | 272° |
| 2026-04-25 14:48 | 51.59905 | 6.30390 | 1966 ft | 171 kts | 274° |
| 2026-04-25 14:48 | 51.59942 | 6.28532 | 1697 ft | 160 kts | 274° |
| 2026-04-25 14:48 | 51.59980 | 6.26817 | 1494 ft | 145 kts | 275° |
| 2026-04-25 14:49 | 51.60020 | 6.25244 | 1302 ft | 139 kts | 269° |
| 2026-04-25 14:49 | 51.60035 | 6.23691 | 1069 ft | 136 kts | 278° |
| 2026-04-25 14:49 | 51.60093 | 6.22196 | 903 ft | 135 kts | 273° |
| 2026-04-25 14:49 | 51.60111 | 6.20683 | 704 ft | 136 kts | 274° |
| 2026-04-25 14:50 | 51.60142 | 6.19170 | 511 ft | 136 kts | 274° |
| 2026-04-25 14:50 | 51.60167 | 6.17657 | 329 ft | 135 kts | 274° |
| 2026-04-25 14:50 | 51.60201 | 6.16160 | 154 ft | 130 kts | 274° |
| 2026-04-25 14:50 | 51.60233 | 6.14839 | 110 ft | 103 kts | 273° |
| 2026-04-25 14:51 | 51.60254 | 6.13882 | 116 ft | 68 kts | 272° |
| 2026-04-25 14:51 | 51.60267 | 6.13277 | 113 ft | 49 kts | 272° |
| 2026-04-25 14:51 | 51.60258 | 6.12969 | 110 ft | 13 kts | 213° |
| 2026-04-25 14:51 | 51.60157 | 6.12954 | 107 ft | 17 kts | 182° |
| 2026-04-25 14:52 | 51.60082 | 6.13040 | 108 ft | 16 kts | 92° |
| 2026-04-25 14:52 | 51.60078 | 6.13246 | 109 ft | 21 kts | 91° |
| 2026-04-25 14:52 | 51.60072 | 6.13474 | 111 ft | 20 kts | 95° |
| 2026-04-25 14:52 | 51.60068 | 6.13645 | 111 ft | 27 kts | 92° |
| 2026-04-25 14:53 | 51.60058 | 6.14096 | 111 ft | 32 kts | 92° |
| 2026-04-25 14:53 | 51.60051 | 6.14433 | 110 ft | 28 kts | 92° |
| 2026-04-25 14:53 | 51.60048 | 6.14706 | 109 ft | 23 kts | 92° |
| 2026-04-25 14:53 | 51.60001 | 6.14798 | 111 ft | 11 kts | 181° |
| 2026-04-25 14:54 | 51.59958 | 6.14819 | 111 ft | 4 kts | 102° |
| 2026-04-25 14:54 | 51.59956 | 6.14865 | 112 ft | 2 kts | 92° |
| 2026-04-25 14:54 | 51.59956 | 6.14867 | 112 ft | 0 kts | 92° |